Flight Track Log - Related Links

Times and Time Zones

All times are in EDT time to prevent confusion due to time zone crossing. See the EJA102 flight status page for this flight to view local times or setup timezone preferences in your user account.

Time Position Orientation Groundspeed Altitude Reporting Facility
EDT Latitude Longitude Course Direction KTS MPH feet Rate Location/Type
Thu 04:26:55 PM 44.7867 -85.5894 North 170 196 2,700  Level Minneapolis Center
Thu 04:27:58 PM 44.8683 -85.5864 North 246 283 4,500 2,400 Climbing Minneapolis Center
Thu 04:29:00 PM 44.9406 -85.5897 358° North 259 298 7,700 2,758 Climbing Minneapolis Center
Thu 04:30:02 PM 45.0108 -85.5733 North 268 308 10,200 2,371 Climbing Minneapolis Center
Thu 04:31:04 PM 45.0672 -85.4919 46° Northeast 285 328 12,600 2,323 Climbing Minneapolis Center
Thu 04:32:06 PM 45.1272 -85.4047 46° Northeast 297 342 15,000 2,419 Climbing Minneapolis Center
Thu 04:33:08 PM 45.2033 -85.2950 45° Northeast 319 367 17,600 2,118 Climbing Minneapolis Center
Thu 04:34:22 PM 45.2689 -85.2017 45° Northeast 330 380 19,800 1,708 Climbing Minneapolis Center
Thu 04:35:25 PM 45.3514 -85.0825 45° Northeast 348 400 21,500 1,344 Climbing Minneapolis Center
Thu 04:36:27 PM 45.4083 -84.9556 57° Northeast 373 429 22,600 1,210 Climbing Minneapolis Center
Thu 04:37:29 PM 45.4308 -84.8014 78° East 390 449 24,000 1,403 Climbing Minneapolis Center
Thu 04:38:31 PM 45.4325 -84.6403 89° East 396 456 25,500 1,597 Climbing Minneapolis Center
Thu 04:39:33 PM 45.4136 -84.4525 98° East 396 456 27,300 1,355 Climbing Minneapolis Center
Thu 04:40:35 PM 45.3867 -84.2928 103° East 401 461 28,300 968 Climbing Minneapolis Center
Thu 04:41:37 PM 45.3600 -84.1278 103° East 413 475 29,300 871 Climbing Minneapolis Center
Thu 04:42:39 PM 45.3347 -83.9622 102° East 422 486 30,100 677 Climbing Minneapolis Center
Thu 04:43:41 PM 45.3086 -83.7947 102° East 428 493 30,700 864 Climbing Minneapolis Center
Thu 04:44:44 PM 45.2803 -83.6294 104° East 430 495 31,900 1,248 Climbing Minneapolis Center
Thu 04:45:46 PM 45.2486 -83.4369 103° East 425 489 33,300 1,161 Climbing Minneapolis Center
Thu 04:46:48 PM 45.2231 -83.2789 103° East 419 482 34,300 919 Climbing Minneapolis Center
Thu 04:47:50 PM 45.1972 -83.1228 103° East 414 476 35,200 919 Climbing Minneapolis Center
Thu 04:48:52 PM 45.1722 -82.9703 103° East 408 470 36,200 677 Climbing Minneapolis Center
Thu 04:49:54 PM 45.1461 -82.8181 104° East 402 463 36,600 435 Climbing Minneapolis Center
Thu 04:50:56 PM 45.1197 -82.6653 104° East 401 461 37,100 571 Climbing Minneapolis Center
Thu 04:52:00 PM 45.0667 -82.4667 111° Southeast 410 472 37,800 532 Climbing Toronto Center
Thu 04:53:00 PM 45.0333 -82.3000 106° East 400 460 38,200 300 Climbing Toronto Center
Thu 04:54:00 PM 45.0167 -82.1500 99° East 410 472 38,400 200 Climbing Toronto Center
Thu 04:55:00 PM 44.9833 -81.9833 106° East 420 483 38,600 200 Climbing Toronto Center
Thu 04:56:00 PM 44.9667 -81.8167 98° East 430 495 38,800 200 Climbing Toronto Center
Thu 04:57:00 PM 44.9333 -81.6500 106° East 430 495 39,000 100 Climbing Toronto Center
Thu 04:58:00 PM 44.9000 -81.4667 104° East 440 506 39,000  Level Toronto Center
Thu 04:59:00 PM 44.8667 -81.3000 106° East 450 518 39,000  Level Toronto Center
Thu 05:00:00 PM 44.8333 -81.1333 106° East 460 529 39,000  Level Toronto Center
Thu 05:01:00 PM 44.8000 -80.9667 106° East 460 529 39,000  Level Toronto Center
Thu 05:02:00 PM 44.7833 -80.8000 98° East 460 529 39,000  Level Toronto Center
Thu 05:03:00 PM 44.7333 -80.6167 111° Southeast 460 529 39,000  Level Toronto Center
Thu 05:04:00 PM 44.7000 -80.4500 106° East 460 529 39,000  Level Toronto Center
Thu 05:05:00 PM 44.6667 -80.2833 106° East 460 529 39,000  Level Toronto Center
Thu 05:06:00 PM 44.6333 -80.1000 104° East 460 529 39,000  Level Toronto Center
Thu 05:07:00 PM 44.6000 -79.9333 106° East 460 529 39,000  Level Toronto Center
Thu 05:08:00 PM 44.5667 -79.7500 104° East 460 529 39,000  Level Toronto Center
Thu 05:09:00 PM 44.5500 -79.5833 98° East 460 529 39,000  Level Toronto Center
Thu 05:10:00 PM 44.5167 -79.4000 104° East 450 518 39,000  Level Toronto Center
Thu 05:11:00 PM 44.4833 -79.2333 106° East 450 518 39,000  Level Toronto Center
Thu 05:12:00 PM 44.4667 -79.0667 98° East 460 529 39,000  Level Toronto Center
Thu 05:13:00 PM 44.4333 -78.8833 104° East 450 518 39,000  Level Toronto Center
Thu 05:14:00 PM 44.4167 -78.7167 98° East 460 529 39,000  Level Toronto Center
Thu 05:15:00 PM 44.3833 -78.5333 104° East 460 529 39,000  Level Toronto Center
Thu 05:16:00 PM 44.3500 -78.3667 106° East 460 529 39,000  Level Toronto Center
Thu 05:17:00 PM 44.3167 -78.2167 107° East 460 529 39,000  Level Toronto Center
Thu 05:18:00 PM 44.2833 -78.0333 104° East 460 529 39,000  Level Toronto Center
Thu 05:19:00 PM 44.2667 -77.8667 98° East 460 529 39,000  Level Toronto Center
Thu 05:20:00 PM 44.2333 -77.6833 104° East 460 529 39,000 -50 Level Toronto Center
Thu 05:21:00 PM 44.2167 -77.5000 97° East 460 529 38,900 -750 Descending Toronto Center
Thu 05:22:00 PM 44.1667 -77.3000 109° East 470 541 37,500 -1,350 Descending Toronto Center
Thu 05:23:00 PM 44.1333 -77.1500 107° East 460 529 36,200 -1,300 Descending Toronto Center
Thu 05:24:00 PM 44.1167 -76.9833 98° East 460 529 34,900 -1,350 Descending Toronto Center
Thu 05:25:00 PM 44.0833 -76.8000 104° East 460 529 33,500 -1,600 Descending Toronto Center
Thu 05:26:00 PM 44.0333 -76.6333 113° Southeast 470 541 31,700 -1,761 Descending Toronto Center
Thu 05:26:49 PM 44.0389 -76.5186 86° East 463 533 30,300 -1,761 Descending Boston Center
Thu 05:27:49 PM 44.0075 -76.3461 104° East 463 533 28,500 -1,650 Descending Boston Center
Thu 05:28:49 PM 43.9736 -76.1706 105° East 463 533 27,000 -750 Descending Boston Center
Thu 05:29:49 PM 43.9267 -76.0061 112° Southeast 463 533 27,000  Level Boston Center
Thu 05:30:49 PM 43.8519 -75.8636 126° Southeast 447 514 27,000  Level Boston Center
Thu 05:31:49 PM 43.7808 -75.7272 126° Southeast 452 520 27,000  Level Boston Center
Thu 05:32:49 PM 43.7078 -75.5853 125° Southeast 452 520 27,000 -366 Level Boston Center
Thu 05:34:00 PM 43.6322 -75.4436 126° Southeast 452 520 26,200 -1,091 Descending Boston Center
Thu 05:35:01 PM 43.5428 -75.2731 126° Southeast 452 520 24,600 -1,091 Descending Boston Center
Thu 05:36:01 PM 43.4669 -75.1292 126° Southeast 463 533 24,000 -412 Descending Boston Center
Thu 05:37:12 PM 43.3911 -74.9889 127° Southeast 463 533 23,700 -455 Descending Boston Center
Thu 05:38:13 PM 43.3153 -74.8344 124° Southeast 463 533 23,000 -347 Descending Boston Center
Thu 05:39:13 PM 43.2453 -74.6892 123° Southeast 457 526 23,000  Level Boston Center
Thu 05:40:13 PM 43.1728 -74.5525 126° Southeast 450 518 23,000 -200 Level Boston Center
Thu 05:41:13 PM 43.0678 -74.4750 152° Southeast 425 489 22,600 -1,300 Descending Boston Center
Thu 05:42:13 PM 42.9581 -74.4403 167° South 410 472 20,400 -2,450 Descending Boston Center
Thu 05:43:13 PM 42.8628 -74.4058 165° South 373 429 17,700 -2,550 Descending Boston Center
Thu 05:44:13 PM 42.7528 -74.3714 167° South 373 429 15,300 -1,800 Descending Boston Center
Thu 05:45:13 PM 42.6658 -74.3375 164° South 373 429 14,100 -650 Descending Boston Center
Thu 05:46:13 PM 42.5539 -74.3003 166° South 373 429 14,000 -50 Descending Boston Center
Thu 05:47:13 PM 42.4650 -74.2694 166° South 373 429 14,000  Level Boston Center
Thu 05:48:13 PM 42.3531 -74.2297 165° South 373 429 14,000  Level Boston Center
Thu 05:49:24 PM 42.2492 -74.1958 166° South 373 429 14,000 42 Level Boston Center
Thu 05:50:36 PM 42.2283 -74.0550 101° East 280 322 14,100  Climbing Boston Center
Thu 05:51:48 PM 42.3372 -74.0186 14° North 197 227 14,000 -45 Descending Boston Center
Thu 05:52:49 PM 42.4456 -74.0297 356° North 279 321 14,000  Level Boston Center
Thu 05:54:01 PM 42.4819 -74.1153 300° West 224 258 14,000  Level Boston Center
Thu 05:55:01 PM 42.4372 -74.1703 222° Southwest 191 220 14,000 50 Level Boston Center
Thu 05:56:01 PM 42.3683 -74.1739 182° South 213 245 14,100  Climbing Boston Center
Thu 05:57:00 PM 42.3225 -74.1811 187° South 230 265 14,000 -50 Descending Boston Center
Thu 05:58:01 PM 42.2367 -74.1928 186° South 243 280 14,000  Level Boston Center
Thu 05:59:01 PM 42.2089 -74.2508 237° Southwest 208 239 14,000  Level Boston Center
Thu 06:00:01 PM 42.2692 -74.2581 355° North 151 174 14,000  Level Boston Center
Thu 06:01:12 PM 42.3386 -74.2097 27° Northeast 214 246 14,000 45 Level Boston Center
Thu 06:02:13 PM 42.3714 -74.1122 66° East 240 276 14,100  Climbing Boston Center
Thu 06:03:13 PM 42.3006 -74.1019 174° South 151 174 14,000 -50 Descending Boston Center
Thu 06:04:13 PM 42.2414 -74.1733 222° Southwest 237 273 14,000  Level Boston Center
Thu 06:05:24 PM 42.1631 -74.2356 210° Southwest 290 334 14,000 -273 Level Boston Center
Thu 06:06:25 PM 42.0747 -74.3000 208° Southwest 307 353 13,400 -942 Descending Boston Center
Thu 06:07:25 PM 42.0114 -74.3486 210° Southwest 307 353 12,100 -1,400 Descending Boston Center
Thu 06:08:25 PM 41.9311 -74.4019 206° Southwest 302 348 10,600 -1,350 Descending Boston Center
Thu 06:09:25 PM 41.8758 -74.4586 217° Southwest 291 335 9,400 -1,150 Descending Boston Center
Thu 06:10:25 PM 41.8311 -74.5131 222° Southwest 277 319 8,300 -1,200 Descending Boston Center
Thu 06:11:25 PM 41.7450 -74.5492 197° South 268 308 7,000 -650 Descending Boston Center
Thu 06:12:25 PM 41.6636 -74.5631 187° South 278 320 7,000  Level Boston Center
Thu 06:13:25 PM 41.5967 -74.5719 186° South 278 320 7,000 -500 Level Boston Center
Thu 06:14:25 PM 41.5131 -74.5803 184° South 270 311 6,000 -500 Descending Boston Center
Thu 06:15:25 PM 41.4483 -74.5864 184° South 270 311 6,000 -87 Level Boston Center
Thu 06:16:43 PM 41.3500 -74.6000 186° South 256 295 5,800 -818 Descending New York TRACON
Thu 06:17:37 PM 41.3000 -74.5500 143° Southeast 264 304 4,200 -900 Descending New York TRACON
Thu 06:18:43 PM 41.2667 -74.4667 118° Southeast 255 293 4,000 -100 Descending New York TRACON
Thu 06:19:37 PM 41.2167 -74.4000 135° Southeast 252 290 4,000 -450 Level New York TRACON
Thu 06:20:43 PM 41.1833 -74.3167 118° Southeast 242 278 3,100 -476 Descending New York TRACON
Thu 06:21:43 PM 41.1500 -74.2500 124° Southeast 200 230 3,000 -50 Descending New York TRACON
Thu 06:22:43 PM 41.1167 -74.2000 131° Southeast 196 226 3,000  Level New York TRACON
Thu 06:23:43 PM 41.0833 -74.1333 124° Southeast 203 234 3,000 -500 Level New York TRACON
Thu 06:24:43 PM 41.0333 -74.0833 143° Southeast 241 277 2,000 -450 Descending New York TRACON
Thu 06:25:43 PM 41.0000 -74.0500 143° Southeast 177 204 2,100 -100 Climbing New York TRACON
Thu 06:26:43 PM 40.9500 -74.0500 180° South 179 206 1,800 -300 Descending New York TRACON

Login

Don't have an account? Register now (free) for customized features, flight alerts, and more!